createdAt,value
2023-02-04T00:00:10.742Z,94.89
2023-02-04T00:01:10.704Z,95.00
2023-02-04T00:02:10.690Z,95.06
2023-02-04T00:03:10.623Z,94.95
2023-02-04T00:04:10.849Z,95.00
2023-02-04T00:05:10.614Z,95.20
2023-02-04T00:06:10.582Z,95.00
2023-02-04T00:07:10.491Z,95.00
2023-02-04T00:08:10.441Z,95.31
2023-02-04T00:09:10.407Z,96.14
2023-02-04T00:10:10.442Z,94.89
2023-02-04T00:11:10.327Z,95.00
2023-02-04T00:12:10.317Z,95.10
2023-02-04T00:13:10.264Z,95.06
2023-02-04T00:14:10.229Z,94.54
2023-02-04T00:15:10.189Z,94.74
2023-02-04T00:16:10.276Z,94.74
2023-02-04T00:17:10.144Z,94.95
2023-02-04T00:18:10.119Z,94.95
2023-02-04T00:19:10.076Z,96.45
2023-02-04T00:20:10.013Z,96.24
2023-02-04T00:21:09.991Z,96.14
2023-02-04T00:22:10.009Z,96.34
2023-02-04T00:23:09.899Z,96.34
2023-02-04T00:24:09.872Z,95.72
2023-02-04T00:25:09.830Z,96.51
2023-02-04T00:26:09.755Z,96.14
2023-02-04T00:27:09.721Z,95.93
2023-02-04T00:28:09.819Z,95.83
2023-02-04T00:29:09.646Z,95.72
2023-02-04T00:30:09.647Z,96.03
2023-02-04T00:31:09.603Z,96.03
2023-02-04T00:32:09.628Z,96.24
2023-02-04T00:33:09.560Z,96.45
2023-02-04T00:34:09.483Z,95.20
2023-02-04T00:35:09.437Z,95.00
2023-02-04T00:36:09.402Z,95.10
2023-02-04T00:37:09.349Z,95.00
2023-02-04T00:38:09.876Z,94.58
2023-02-04T00:39:09.285Z,94.79
2023-02-04T00:40:09.239Z,94.79
2023-02-04T00:41:09.214Z,95.20
2023-02-04T00:42:09.157Z,95.00
2023-02-04T00:43:09.166Z,95.31
2023-02-04T00:44:09.074Z,95.00
2023-02-04T00:45:09.051Z,94.89
2023-02-04T00:46:09.018Z,95.31
2023-02-04T00:47:08.962Z,95.10
2023-02-04T00:48:08.929Z,94.79
2023-02-04T00:49:08.947Z,94.89
2023-02-04T00:50:08.868Z,94.79
2023-02-04T00:51:08.821Z,94.79
2023-02-04T00:52:08.802Z,94.68
2023-02-04T00:53:08.749Z,94.89
2023-02-04T00:54:08.712Z,94.37
2023-02-04T00:55:08.865Z,94.68
2023-02-04T00:56:08.679Z,94.68
2023-02-04T00:57:08.594Z,94.89
2023-02-04T00:58:08.563Z,94.17
2023-02-04T00:59:08.532Z,94.37
2023-02-04T01:00:08.501Z,94.06
2023-02-04T01:01:08.552Z,93.85
2023-02-04T01:02:08.432Z,93.96
2023-02-04T01:03:08.424Z,94.48
2023-02-04T01:04:08.330Z,95.04
2023-02-04T01:05:08.300Z,95.46
2023-02-04T01:06:08.319Z,96.70
2023-02-04T01:07:08.244Z,97.64
2023-02-04T01:08:08.189Z,97.06
2023-02-04T01:09:08.157Z,97.78
2023-02-04T01:10:08.129Z,97.37
2023-02-04T01:11:08.137Z,97.99
2023-02-04T01:12:08.046Z,98.03
2023-02-04T01:13:07.996Z,98.66
2023-02-04T01:14:07.978Z,98.45
2023-02-04T01:15:07.946Z,98.14
2023-02-04T01:16:07.921Z,97.67
2023-02-04T01:17:07.912Z,97.04
2023-02-04T01:18:07.799Z,97.88
2023-02-04T01:19:07.778Z,97.67
2023-02-04T01:20:07.730Z,97.04
2023-02-04T01:21:07.714Z,96.73
2023-02-04T01:22:07.665Z,96.11
2023-02-04T01:23:07.673Z,96.52
2023-02-04T01:24:07.584Z,96.11
2023-02-04T01:25:07.534Z,96.52
2023-02-04T01:26:07.495Z,96.52
2023-02-04T01:27:07.473Z,96.21
2023-02-04T01:28:07.611Z,95.17
2023-02-04T01:29:07.499Z,95.59
2023-02-04T01:30:07.352Z,96.04
2023-02-04T01:31:07.399Z,96.04
2023-02-04T01:32:07.320Z,96.04
2023-02-04T01:33:07.286Z,96.04
2023-02-04T01:34:07.195Z,96.78
2023-02-04T01:35:07.159Z,96.98
2023-02-04T01:36:07.126Z,96.98
2023-02-04T01:37:07.076Z,98.02
2023-02-04T01:38:07.185Z,97.81
2023-02-04T01:39:07.000Z,97.55
2023-02-04T01:40:06.969Z,97.75
2023-02-04T01:41:06.923Z,98.07
2023-02-04T01:42:06.897Z,98.48
2023-02-04T01:43:06.931Z,98.48
2023-02-04T01:44:06.811Z,98.07
2023-02-04T01:45:06.777Z,98.63
2023-02-04T01:46:06.930Z,98.48
2023-02-04T01:47:06.714Z,97.96
2023-02-04T01:48:06.744Z,98.32
2023-02-04T01:49:06.633Z,98.38
2023-02-04T01:50:06.589Z,97.75
2023-02-04T01:51:06.561Z,97.65
2023-02-04T01:52:06.508Z,97.55
2023-02-04T01:53:06.567Z,97.19
2023-02-04T01:54:06.482Z,96.98
2023-02-04T01:55:06.396Z,97.19
2023-02-04T01:56:06.349Z,96.15
2023-02-04T01:57:06.308Z,96.36
2023-02-04T01:58:06.279Z,96.15
2023-02-04T01:59:06.299Z,96.67
2023-02-04T02:00:06.209Z,96.15
2023-02-04T02:01:06.172Z,96.67
2023-02-04T02:02:06.186Z,96.04
2023-02-04T02:03:06.191Z,96.36
2023-02-04T02:04:06.121Z,96.00
2023-02-04T02:05:06.005Z,95.48
2023-02-04T02:06:05.961Z,95.28
2023-02-04T02:07:05.937Z,95.94
2023-02-04T02:08:05.898Z,96.21
2023-02-04T02:09:05.842Z,96.36
2023-02-04T02:10:05.899Z,96.15
2023-02-04T02:11:05.775Z,96.36
2023-02-04T02:12:05.739Z,96.15
2023-02-04T02:13:05.687Z,96.41
2023-02-04T02:14:05.658Z,96.30
2023-02-04T02:15:05.617Z,96.09
2023-02-04T02:16:05.646Z,96.72
2023-02-04T02:17:05.552Z,96.09
2023-02-04T02:18:05.508Z,96.30
2023-02-04T02:19:05.464Z,96.51
2023-02-04T02:20:05.507Z,96.24
2023-02-04T02:21:05.392Z,96.61
2023-02-04T02:22:05.417Z,96.30
2023-02-04T02:23:05.378Z,96.45
2023-02-04T02:24:05.295Z,96.24
2023-02-04T02:25:05.267Z,96.14
2023-02-04T02:26:05.231Z,96.86
2023-02-04T02:27:05.187Z,96.76
2023-02-04T02:28:05.278Z,96.76
2023-02-04T02:29:05.092Z,96.66
2023-02-04T02:31:44.017Z,96.55
2023-02-04T02:32:44.559Z,96.76
2023-02-04T02:33:44.876Z,96.70
2023-02-04T02:34:43.852Z,96.76
2023-02-04T02:35:43.808Z,96.80
2023-02-04T02:36:43.778Z,96.66
2023-02-04T02:37:43.733Z,96.39
2023-02-04T02:38:43.692Z,96.08
2023-02-04T02:39:43.711Z,96.18
2023-02-04T02:40:43.605Z,96.18
2023-02-04T02:41:43.603Z,96.18
2023-02-04T02:42:43.559Z,96.59
2023-02-04T02:43:43.490Z,96.43
2023-02-04T02:44:43.500Z,97.37
2023-02-04T02:45:43.426Z,97.16
2023-02-04T02:46:43.367Z,97.27
2023-02-04T02:47:43.324Z,96.85
2023-02-04T02:48:43.285Z,97.12
2023-02-04T02:49:43.368Z,97.12
2023-02-04T02:50:43.223Z,97.16
2023-02-04T02:51:43.175Z,97.27
2023-02-04T02:52:43.192Z,96.85
2023-02-04T02:53:43.093Z,97.68
2023-02-04T02:54:43.061Z,97.47
2023-02-04T02:55:43.888Z,97.72
2023-02-04T02:56:42.980Z,97.62
2023-02-04T02:57:42.991Z,97.52
2023-02-04T02:58:42.935Z,98.14
2023-02-04T02:59:42.871Z,98.14
2023-02-04T03:00:42.831Z,97.94
2023-02-04T03:01:42.784Z,98.25
2023-02-04T03:02:42.851Z,98.77
2023-02-04T03:03:43.382Z,98.77
2023-02-04T03:04:42.669Z,98.56
2023-02-04T03:05:42.630Z,98.66
2023-02-04T03:06:42.760Z,99.13
2023-02-04T03:07:42.617Z,98.97
2023-02-04T03:08:42.526Z,98.92
2023-02-04T03:09:42.471Z,99.02
2023-02-04T03:10:42.443Z,99.65
2023-02-04T03:11:42.401Z,99.96
2023-02-04T03:12:42.413Z,99.96
2023-02-04T03:13:42.337Z,99.65
2023-02-04T03:14:42.289Z,99.44
2023-02-04T03:15:42.348Z,99.96
2023-02-04T03:16:42.205Z,99.99
2023-02-04T03:17:42.217Z,99.99
2023-02-04T03:18:42.128Z,99.99
2023-02-04T03:19:42.098Z,99.99
2023-02-04T03:20:42.052Z,99.99
2023-02-04T03:21:42.037Z,99.99
2023-02-04T03:22:41.980Z,99.99
2023-02-04T03:23:47.877Z,99.99
2023-02-04T03:24:41.896Z,99.99
2023-02-04T03:25:41.864Z,99.99
2023-02-04T03:26:41.837Z,99.99
2023-02-04T03:27:41.827Z,99.99
2023-02-04T03:28:41.750Z,99.99
2023-02-04T03:29:41.759Z,99.99
2023-02-04T03:30:41.750Z,99.99
2023-02-04T03:31:41.709Z,99.99
2023-02-04T03:32:41.661Z,99.99
2023-02-04T03:33:41.557Z,99.99
2023-02-04T03:34:41.548Z,99.99
2023-02-04T03:35:41.534Z,99.99
2023-02-04T03:36:41.440Z,99.99
2023-02-04T03:37:41.396Z,99.99
2023-02-04T03:38:41.380Z,99.99
2023-02-04T03:39:41.324Z,99.99
2023-02-04T03:40:41.901Z,99.99
2023-02-04T03:41:41.306Z,99.99
2023-02-04T03:42:41.202Z,99.99
2023-02-04T03:43:41.170Z,99.99
2023-02-04T03:44:41.143Z,99.99
2023-02-04T03:45:45.507Z,99.99
2023-02-04T03:46:41.062Z,99.99
2023-02-04T03:47:41.089Z,99.99
2023-02-04T03:48:40.975Z,99.99
2023-02-04T03:49:40.931Z,99.99
2023-02-04T03:50:40.893Z,99.99
2023-02-04T03:51:40.874Z,99.99
2023-02-04T03:52:40.813Z,99.99
2023-02-04T03:53:40.829Z,99.99
2023-02-04T03:54:40.742Z,99.99
2023-02-04T03:55:40.697Z,99.99
2023-02-04T03:56:40.664Z,99.99
2023-02-04T03:57:41.385Z,99.99
2023-02-04T03:58:40.663Z,99.99
2023-02-04T03:59:40.550Z,99.99
2023-02-04T04:00:40.545Z,99.99
2023-02-04T04:01:40.526Z,99.99
2023-02-04T04:02:40.482Z,99.99
2023-02-04T04:03:40.412Z,99.99
2023-02-04T04:04:40.410Z,99.99
2023-02-04T04:05:40.362Z,99.99
2023-02-04T04:06:40.314Z,99.99
2023-02-04T04:07:40.236Z,99.99
2023-02-04T04:08:40.223Z,99.99
2023-02-04T04:09:40.208Z,99.99
2023-02-04T04:10:41.974Z,99.99
2023-02-04T04:11:40.089Z,99.99
2023-02-04T04:12:40.045Z,99.99
2023-02-04T04:13:40.036Z,99.99
2023-02-04T04:14:40.158Z,99.99
2023-02-04T04:15:40.068Z,99.99
2023-02-04T04:16:39.894Z,99.99
2023-02-04T04:17:39.848Z,99.99
2023-02-04T04:18:39.908Z,99.99
2023-02-04T04:19:39.770Z,99.99
2023-02-04T04:20:40.505Z,99.99
2023-02-04T04:21:39.756Z,99.99
2023-02-04T04:22:39.659Z,99.99
2023-02-04T04:23:39.685Z,99.99
2023-02-04T04:24:39.580Z,99.99
2023-02-04T04:25:39.545Z,99.99
2023-02-04T04:26:39.512Z,99.99
2023-02-04T04:27:39.515Z,99.99
2023-02-04T04:28:39.503Z,99.99
2023-02-04T04:29:39.419Z,99.99
2023-02-04T04:30:39.386Z,99.99
2023-02-04T04:31:39.541Z,99.99
2023-02-04T04:32:39.271Z,99.99
2023-02-04T04:33:39.223Z,99.99
2023-02-04T04:34:39.274Z,99.99
2023-02-04T04:35:39.160Z,99.99
2023-02-04T04:36:39.095Z,99.99
2023-02-04T04:37:39.073Z,99.99
2023-02-04T04:38:39.026Z,99.99
2023-02-04T04:39:38.993Z,99.99
2023-02-04T04:40:39.113Z,99.99
2023-02-04T04:41:38.916Z,99.99
2023-02-04T04:42:38.871Z,99.99
2023-02-04T04:43:38.843Z,99.99
2023-02-04T04:44:38.787Z,99.99
2023-02-04T04:45:38.746Z,99.99
2023-02-04T04:46:38.777Z,99.99
2023-02-04T04:47:38.674Z,99.99
2023-02-04T04:48:39.559Z,99.99
2023-02-04T04:49:38.601Z,99.99
2023-02-04T04:50:38.574Z,99.99
2023-02-04T04:51:38.517Z,99.99
2023-02-04T04:52:38.571Z,99.99
2023-02-04T04:53:38.439Z,99.99
2023-02-04T04:54:38.409Z,99.99
2023-02-04T04:55:38.363Z,99.99
2023-02-04T04:56:38.325Z,99.99
2023-02-04T04:57:38.290Z,99.99
2023-02-04T04:58:38.301Z,99.99
2023-02-04T04:59:38.210Z,99.99
2023-02-04T05:00:38.196Z,99.99
2023-02-04T05:01:38.132Z,99.99
2023-02-04T05:02:38.094Z,99.99
2023-02-04T05:03:47.038Z,99.99
2023-02-04T05:04:50.104Z,99.99
2023-02-04T05:05:38.001Z,99.99
2023-02-04T05:06:45.609Z,99.99
2023-02-04T05:07:37.897Z,99.99
2023-02-04T05:08:37.861Z,99.99
2023-02-04T05:09:37.896Z,99.99
2023-02-04T05:10:37.781Z,99.99
2023-02-04T05:11:37.794Z,99.99
2023-02-04T05:12:37.702Z,99.99
2023-02-04T05:13:37.667Z,99.99
2023-02-04T05:14:37.655Z,99.99
2023-02-04T05:15:37.589Z,99.99
2023-02-04T05:16:37.618Z,99.99
2023-02-04T05:17:37.549Z,99.99
2023-02-04T05:18:37.472Z,99.99
2023-02-04T05:19:37.454Z,99.99
2023-02-04T05:20:37.418Z,99.99
2023-02-04T05:21:37.442Z,99.99
2023-02-04T05:22:37.372Z,99.99
2023-02-04T05:23:37.277Z,99.99
2023-02-04T05:24:37.230Z,99.99
2023-02-04T05:25:37.208Z,99.99
2023-02-04T05:26:37.230Z,99.99
2023-02-04T05:27:37.116Z,99.99
2023-02-04T05:28:37.102Z,99.99
2023-02-04T05:29:37.048Z,99.99
2023-02-04T05:30:37.041Z,99.99
2023-02-04T05:31:37.007Z,99.99
2023-02-04T05:32:36.999Z,99.99
2023-02-04T05:33:36.889Z,99.99
2023-02-04T05:34:39.673Z,99.99
2023-02-04T05:35:36.802Z,99.99
2023-02-04T05:36:36.777Z,99.99
2023-02-04T05:37:36.724Z,99.99
2023-02-04T05:38:36.751Z,99.99
2023-02-04T05:39:36.669Z,99.99
2023-02-04T05:40:36.616Z,99.99
2023-02-04T05:41:36.570Z,99.99
2023-02-04T05:42:36.545Z,99.99
2023-02-04T05:43:36.559Z,99.99
2023-02-04T05:44:36.468Z,99.99
2023-02-04T05:45:36.517Z,99.99
2023-02-04T05:46:36.372Z,99.99
2023-02-04T05:47:36.425Z,99.99
2023-02-04T05:48:36.299Z,99.99
2023-02-04T05:49:36.402Z,99.99
2023-02-04T05:50:36.240Z,99.99
2023-02-04T05:51:36.195Z,99.99
2023-02-04T05:52:36.139Z,99.99
2023-02-04T05:53:36.100Z,99.99
2023-02-04T05:54:36.113Z,99.99
2023-02-04T05:55:36.031Z,99.99
2023-02-04T05:56:35.987Z,99.99
2023-02-04T05:57:35.949Z,99.99
2023-02-04T05:58:35.903Z,99.99
2023-02-04T05:59:35.940Z,99.99
2023-02-04T06:00:35.837Z,99.99
2023-02-04T06:01:35.793Z,99.99
2023-02-04T06:02:35.871Z,99.99
2023-02-04T06:03:35.869Z,99.99
2023-02-04T06:04:35.749Z,99.99
2023-02-04T06:05:35.633Z,99.99
2023-02-04T06:06:35.594Z,99.99
2023-02-04T06:07:35.554Z,99.99
2023-02-04T06:08:35.515Z,99.99
2023-02-04T06:09:35.474Z,99.99
2023-02-04T06:10:35.518Z,99.99
2023-02-04T06:11:35.405Z,99.99
2023-02-04T06:12:35.366Z,99.99
2023-02-04T06:13:35.348Z,99.99
2023-02-04T06:14:35.278Z,99.99
2023-02-04T06:15:35.242Z,99.99
2023-02-04T06:16:35.309Z,99.99
2023-02-04T06:17:35.165Z,99.99
2023-02-04T06:18:35.129Z,99.99
2023-02-04T06:19:35.096Z,99.99
2023-02-04T06:20:35.058Z,99.99
2023-02-04T06:21:35.006Z,99.99
2023-02-04T06:22:35.237Z,99.99
2023-02-04T06:23:34.942Z,99.99
2023-02-04T06:24:34.891Z,99.99
2023-02-04T06:25:34.860Z,99.99
2023-02-04T06:26:34.826Z,99.99
2023-02-04T06:27:34.789Z,99.99
2023-02-04T06:28:34.815Z,99.99
2023-02-04T06:29:34.719Z,99.99
2023-02-04T06:30:35.029Z,99.99
2023-02-04T06:31:34.722Z,99.99
2023-02-04T06:32:34.580Z,99.99
2023-02-04T06:33:34.547Z,99.99
2023-02-04T06:34:34.562Z,99.99
2023-02-04T06:35:34.462Z,99.99
2023-02-04T06:36:34.464Z,99.99
2023-02-04T06:37:34.382Z,99.99
2023-02-04T06:38:34.355Z,99.99
2023-02-04T06:39:34.321Z,99.99
2023-02-04T06:40:34.566Z,99.99
2023-02-04T06:41:34.244Z,99.99
2023-02-04T06:42:34.188Z,99.99
2023-02-04T06:43:34.153Z,99.99
2023-02-04T06:44:34.124Z,99.99
2023-02-04T06:45:34.075Z,99.99
2023-02-04T06:46:34.109Z,99.99
2023-02-04T06:47:34.520Z,99.99
2023-02-04T06:48:33.946Z,99.99
2023-02-04T06:49:33.904Z,99.99
2023-02-04T06:50:34.129Z,99.99
2023-02-04T06:51:33.840Z,99.99
2023-02-04T06:52:33.870Z,99.99
2023-02-04T06:53:33.789Z,99.99
2023-02-04T06:54:33.713Z,99.99
2023-02-04T06:55:33.677Z,99.99
2023-02-04T06:56:33.646Z,99.99
2023-02-04T06:57:33.600Z,99.99
2023-02-04T06:58:33.631Z,99.99
2023-02-04T06:59:33.518Z,99.99
2023-02-04T07:00:33.840Z,99.99
2023-02-04T07:01:33.450Z,99.99
2023-02-04T07:02:33.497Z,99.99
2023-02-04T07:03:33.368Z,99.99
2023-02-04T07:04:33.454Z,99.99
2023-02-04T07:05:33.290Z,99.99
2023-02-04T07:06:33.323Z,99.99
2023-02-04T07:07:33.205Z,99.99
2023-02-04T07:08:33.169Z,99.99
2023-02-04T07:09:33.143Z,99.99
2023-02-04T07:10:33.474Z,99.99
2023-02-04T07:11:33.050Z,99.99
2023-02-04T07:12:33.078Z,99.99
2023-02-04T07:13:32.971Z,99.99
2023-02-04T07:14:33.616Z,99.99
2023-02-04T07:15:32.907Z,99.99
2023-02-04T07:16:32.856Z,99.99
2023-02-04T07:17:33.517Z,99.99
2023-02-04T07:18:32.826Z,99.99
2023-02-04T07:19:32.820Z,99.99
2023-02-04T07:20:33.135Z,99.99
2023-02-04T07:21:34.512Z,99.99
2023-02-04T07:22:32.618Z,99.99
2023-02-04T07:23:32.584Z,99.99
2023-02-04T07:24:32.602Z,99.99
2023-02-04T07:25:32.507Z,99.99
2023-02-04T07:26:32.468Z,99.99
2023-02-04T07:27:32.471Z,99.99
2023-02-04T07:28:32.455Z,99.99
2023-02-04T07:29:32.341Z,99.99
2023-02-04T07:30:32.722Z,99.99
2023-02-04T07:31:32.336Z,99.99
2023-02-04T07:32:32.226Z,99.99
2023-02-04T07:33:32.185Z,99.99
2023-02-04T07:34:32.147Z,99.99
2023-02-04T07:35:32.110Z,99.99
2023-02-04T07:36:32.183Z,99.99
2023-02-04T07:37:32.033Z,99.99
2023-02-04T07:38:31.994Z,99.99
2023-02-04T07:39:31.953Z,99.99
2023-02-04T07:40:32.245Z,99.99
2023-02-04T07:41:31.877Z,99.99
2023-02-04T07:42:31.889Z,99.99
2023-02-04T07:43:31.807Z,99.99
2023-02-04T07:44:31.807Z,99.99
2023-02-04T07:45:31.736Z,99.99
2023-02-04T07:46:31.737Z,99.99
2023-02-04T07:47:31.633Z,99.99
2023-02-04T07:48:31.670Z,99.99
2023-02-04T07:49:31.550Z,99.99
2023-02-04T07:50:31.917Z,99.99
2023-02-04T07:51:31.481Z,99.99
2023-02-04T07:52:31.436Z,99.99
2023-02-04T07:53:31.549Z,99.99
2023-02-04T07:54:31.416Z,99.99
2023-02-04T07:55:31.323Z,99.99
2023-02-04T07:56:31.285Z,99.99
2023-02-04T07:57:31.333Z,99.99
2023-02-04T07:58:31.198Z,99.99
2023-02-04T07:59:31.168Z,99.99
2023-02-04T08:00:31.499Z,99.99
2023-02-04T08:01:31.155Z,99.99
2023-02-04T08:02:31.648Z,99.99
2023-02-04T08:03:32.841Z,99.99
2023-02-04T08:04:30.974Z,99.99
2023-02-04T08:05:30.931Z,99.99
2023-02-04T08:06:30.998Z,99.99
2023-02-04T08:07:30.846Z,99.99
2023-02-04T08:08:30.814Z,99.99
2023-02-04T08:09:30.774Z,99.99
2023-02-04T08:10:37.504Z,99.99
2023-02-04T08:11:31.166Z,99.99
2023-02-04T08:12:30.652Z,99.99
2023-02-04T08:13:30.614Z,99.99
2023-02-04T08:14:30.598Z,99.99
2023-02-04T08:15:30.542Z,99.99
2023-02-04T08:16:30.498Z,99.99
2023-02-04T08:22:25.308Z,99.71
2023-02-04T08:23:07.144Z,99.60
2023-02-04T08:24:07.091Z,99.71
2023-02-04T08:25:07.054Z,99.40
2023-02-04T08:26:07.014Z,99.50
2023-02-04T08:27:07.002Z,99.76
2023-02-04T08:28:07.048Z,99.71
2023-02-04T08:29:06.920Z,99.24
2023-02-04T08:31:46.268Z,99.04
2023-02-04T08:32:46.182Z,99.04
2023-02-04T08:33:46.215Z,99.14
2023-02-04T08:34:46.104Z,98.88
2023-02-04T08:35:46.064Z,98.78
2023-02-04T08:36:46.028Z,98.36
2023-02-04T08:37:45.983Z,98.26
2023-02-04T08:38:46.521Z,98.36
2023-02-04T08:39:45.909Z,98.16
2023-02-04T08:40:45.874Z,98.26
2023-02-04T08:41:45.960Z,98.05
2023-02-04T08:42:45.798Z,98.05
2023-02-04T08:43:45.814Z,97.53
2023-02-04T08:44:45.728Z,97.74
2023-02-04T08:45:45.691Z,97.64
2023-02-04T08:46:45.697Z,97.64
2023-02-04T08:47:45.615Z,97.64
2023-02-04T08:48:45.584Z,97.64
2023-02-04T08:49:45.630Z,97.85
2023-02-04T08:50:45.498Z,97.53
2023-02-04T08:51:45.466Z,97.59
2023-02-04T08:52:45.444Z,97.59
2023-02-04T08:53:45.394Z,97.07
2023-02-04T08:54:45.444Z,97.07
2023-02-04T08:55:45.322Z,97.28
2023-02-04T08:56:45.281Z,97.17
2023-02-04T08:57:45.256Z,96.66
2023-02-04T08:58:46.226Z,97.07
2023-02-04T08:59:46.096Z,96.82
2023-02-04T09:00:45.216Z,96.45
2023-02-04T09:01:45.110Z,96.45
2023-02-04T09:02:45.064Z,96.03
2023-02-04T09:03:45.034Z,96.72
2023-02-04T09:04:44.977Z,96.72
2023-02-04T09:05:45.004Z,96.88
2023-02-04T09:06:44.965Z,96.09
2023-02-04T09:07:44.868Z,96.61
2023-02-04T09:08:44.837Z,96.04
2023-02-04T09:09:44.792Z,96.04
2023-02-04T09:10:44.773Z,95.84
2023-02-04T09:11:44.742Z,95.47
2023-02-04T09:12:44.729Z,95.32
2023-02-04T09:13:44.642Z,95.42
2023-02-04T09:14:44.610Z,94.90
2023-02-04T09:15:44.562Z,94.55
2023-02-04T09:16:44.555Z,94.70
2023-02-04T09:17:44.488Z,94.49
2023-02-04T09:18:44.504Z,95.07
2023-02-04T09:19:44.405Z,94.96
2023-02-04T09:20:44.407Z,94.13
2023-02-04T09:21:44.336Z,94.13
2023-02-04T09:22:44.308Z,94.03
2023-02-04T09:23:44.267Z,94.03
2023-02-04T09:24:44.293Z,94.34
2023-02-04T09:25:44.210Z,94.34
2023-02-04T09:26:44.155Z,94.28
2023-02-04T09:27:44.145Z,93.97
2023-02-04T09:28:44.097Z,94.55
2023-02-04T09:29:44.060Z,94.45
2023-02-04T09:30:44.084Z,93.93
2023-02-04T09:31:44.054Z,93.72
2023-02-04T09:32:44.074Z,93.62
2023-02-04T09:33:43.896Z,93.30
2023-02-04T09:34:43.854Z,93.05
2023-02-04T09:35:43.817Z,93.47
2023-02-04T09:36:43.824Z,92.68
2023-02-04T09:37:43.739Z,93.57
2023-02-04T09:38:43.702Z,94.03
2023-02-04T09:39:44.358Z,93.20
2023-02-04T09:40:43.630Z,93.41
2023-02-04T09:41:43.604Z,93.93
2023-02-04T09:42:43.597Z,93.16
2023-02-04T09:43:43.515Z,93.20
2023-02-04T09:44:43.472Z,92.78
2023-02-04T09:45:43.478Z,93.16
2023-02-04T09:46:43.409Z,93.51
2023-02-04T09:47:43.369Z,92.88
2023-02-04T09:48:43.391Z,93.41
2023-02-04T09:49:43.334Z,93.72
2023-02-04T09:50:43.259Z,93.62
2023-02-04T09:51:43.227Z,93.26
2023-02-04T09:52:43.212Z,92.88
2023-02-04T09:53:43.137Z,93.41
2023-02-04T09:54:43.155Z,93.72
2023-02-04T09:55:43.079Z,93.10
2023-02-04T09:56:43.067Z,93.41
2023-02-04T09:57:42.973Z,93.47
2023-02-04T09:58:42.934Z,93.16
2023-02-04T09:59:42.897Z,93.26
2023-02-04T10:00:42.940Z,92.84
2023-02-04T10:01:42.835Z,93.05
2023-02-04T10:02:42.788Z,92.63
2023-02-04T10:03:42.750Z,92.53
2023-02-04T10:04:42.707Z,93.16
2023-02-04T10:05:43.344Z,92.74
2023-02-04T10:06:42.893Z,92.84
2023-02-04T10:07:42.593Z,92.80
2023-02-04T10:08:42.545Z,92.63
2023-02-04T10:09:42.523Z,92.38
2023-02-04T10:10:42.480Z,92.69
2023-02-04T10:11:42.442Z,92.32
2023-02-04T10:12:42.454Z,92.18
2023-02-04T10:13:42.392Z,92.59
2023-02-04T10:14:42.317Z,92.35
2023-02-04T10:15:42.283Z,91.83
2023-02-04T10:16:42.397Z,91.83
2023-02-04T10:17:42.211Z,91.52
2023-02-04T10:18:42.264Z,91.83
2023-02-04T10:19:42.132Z,91.45
2023-02-04T10:20:42.096Z,91.31
2023-02-04T10:21:42.059Z,91.83
2023-02-04T10:22:42.021Z,91.55
2023-02-04T10:23:42.005Z,91.14
2023-02-04T10:24:41.991Z,91.31
2023-02-04T10:25:41.902Z,91.20
2023-02-04T10:26:41.873Z,91.72
2023-02-04T10:27:41.874Z,91.72
2023-02-04T10:28:41.951Z,91.00
2023-02-04T10:29:42.407Z,90.52
2023-02-04T10:30:42.479Z,91.03
2023-02-04T10:31:41.855Z,91.00
2023-02-04T10:32:45.236Z,91.00
2023-02-04T10:33:41.694Z,90.37
2023-02-04T10:34:41.676Z,89.65
2023-02-04T10:35:41.611Z,89.44
2023-02-04T10:36:41.516Z,89.71
2023-02-04T10:37:41.471Z,89.71
2023-02-04T10:38:41.427Z,87.95
2023-02-04T10:39:41.389Z,87.22
2023-02-04T10:40:43.239Z,86.18
2023-02-04T10:41:41.320Z,87.05
2023-02-04T10:42:41.277Z,87.95
2023-02-04T10:43:41.240Z,87.53
2023-02-04T10:44:41.202Z,87.38
2023-02-04T10:45:41.167Z,87.49
2023-02-04T10:46:41.232Z,88.11
2023-02-04T10:47:41.177Z,87.04
2023-02-04T10:48:41.068Z,86.00
2023-02-04T10:49:41.018Z,85.48
2023-02-04T10:50:40.977Z,85.69
2023-02-04T10:51:40.946Z,85.38
2023-02-04T10:52:40.990Z,85.44
2023-02-04T10:53:40.881Z,83.51
2023-02-04T10:54:40.916Z,84.13
2023-02-04T10:55:40.860Z,84.59
2023-02-04T10:56:40.802Z,85.00
2023-02-04T10:57:40.792Z,85.06
2023-02-04T10:58:40.750Z,84.28
2023-02-04T10:59:40.649Z,84.28
2023-02-04T11:00:40.610Z,84.28
2023-02-04T11:01:40.628Z,83.65
2023-02-04T11:02:40.544Z,83.72
2023-02-04T11:03:41.283Z,83.00
2023-02-04T11:04:40.581Z,82.51
2023-02-04T11:05:40.430Z,82.89
2023-02-04T11:06:40.496Z,82.68
2023-02-04T11:07:40.356Z,81.92
2023-02-04T11:08:40.321Z,81.40
2023-02-04T11:09:40.366Z,80.74
2023-02-04T11:10:40.409Z,80.78
2023-02-04T11:11:40.240Z,79.95
2023-02-04T11:12:40.401Z,80.57
2023-02-04T11:13:40.190Z,80.68
2023-02-04T11:14:41.747Z,81.30
2023-02-04T11:15:41.133Z,81.37
2023-02-04T11:16:40.203Z,80.81
2023-02-04T11:17:40.750Z,81.02
2023-02-04T11:18:40.002Z,81.02
2023-02-04T11:19:39.924Z,80.19
2023-02-04T11:20:39.875Z,79.47
2023-02-04T11:21:40.085Z,79.47
2023-02-04T11:22:39.809Z,79.40
2023-02-04T11:23:39.784Z,77.50
2023-02-04T11:24:39.763Z,79.05
2023-02-04T11:25:39.714Z,78.33
2023-02-04T11:26:39.649Z,78.53
2023-02-04T11:27:39.764Z,78.85
2023-02-04T11:28:39.599Z,78.43
2023-02-04T11:29:39.549Z,77.09
2023-02-04T11:30:39.641Z,77.09
2023-02-04T11:31:39.694Z,77.09
2023-02-04T11:32:39.434Z,77.09
2023-02-04T11:33:39.485Z,77.19
2023-02-04T11:34:39.378Z,77.09
2023-02-04T11:35:39.343Z,77.19
2023-02-04T11:36:39.294Z,78.02
2023-02-04T11:37:39.286Z,77.15
2023-02-04T11:38:39.244Z,76.53
2023-02-04T11:39:39.403Z,76.01
2023-02-04T11:40:39.165Z,74.98
2023-02-04T11:41:39.222Z,75.88
2023-02-04T11:42:39.068Z,76.18
2023-02-04T11:43:40.248Z,75.46
2023-02-04T11:44:39.752Z,75.67
2023-02-04T11:45:39.002Z,77.01
2023-02-04T11:46:39.034Z,76.70
2023-02-04T11:47:39.073Z,77.05
2023-02-04T11:48:39.058Z,76.57
2023-02-04T11:49:38.901Z,76.88
2023-02-04T11:50:38.856Z,77.33
2023-02-04T11:51:38.908Z,78.43
2023-02-04T11:52:38.702Z,78.67
2023-02-04T11:53:38.671Z,78.78
2023-02-04T11:54:38.630Z,77.33
2023-02-04T11:55:38.673Z,76.36
2023-02-04T11:56:38.617Z,75.32
2023-02-04T11:57:38.549Z,75.84
2023-02-04T11:58:38.499Z,75.84
2023-02-04T11:59:38.453Z,77.09
2023-02-04T12:00:38.421Z,76.15
2023-02-04T12:01:38.470Z,76.88
2023-02-04T12:02:38.430Z,76.78
2023-02-04T12:03:38.351Z,76.98
2023-02-04T12:04:38.288Z,77.09
2023-02-04T12:05:38.324Z,76.88
2023-02-04T12:06:38.205Z,77.36
2023-02-04T12:07:38.223Z,77.09
2023-02-04T12:08:38.123Z,76.29
2023-02-04T12:09:38.111Z,76.23
2023-02-04T12:10:38.086Z,76.36
2023-02-04T12:11:38.005Z,76.57
2023-02-04T12:12:37.982Z,77.40
2023-02-04T12:13:38.006Z,78.23
2023-02-04T12:14:37.905Z,78.64
2023-02-04T12:15:37.919Z,78.64
2023-02-04T12:16:37.838Z,79.16
2023-02-04T12:17:37.793Z,79.37
2023-02-04T12:18:37.784Z,79.27
2023-02-04T12:19:37.796Z,79.68
2023-02-04T12:20:37.702Z,79.88
2023-02-04T12:21:37.684Z,79.71
2023-02-04T12:22:37.685Z,80.19
2023-02-04T12:23:37.588Z,79.78
2023-02-04T12:24:37.552Z,79.47
2023-02-04T12:25:37.575Z,79.88
2023-02-04T12:26:37.470Z,79.33
2023-02-04T12:27:37.441Z,79.13
2023-02-04T12:28:37.389Z,79.30
2023-02-04T12:29:37.356Z,78.88
2023-02-04T12:30:37.315Z,78.53
2023-02-04T12:31:37.421Z,78.53
2023-02-04T12:32:37.280Z,77.70
2023-02-04T12:33:37.225Z,77.29
2023-02-04T12:34:37.174Z,78.26
2023-02-04T12:35:37.133Z,78.05
2023-02-04T12:36:37.179Z,77.22
2023-02-04T12:37:37.055Z,77.33
2023-02-04T12:38:37.027Z,77.47
2023-02-04T12:39:37.092Z,77.36
2023-02-04T12:40:36.960Z,77.71
2023-02-04T12:41:36.920Z,78.33
2023-02-04T12:42:36.948Z,78.44
2023-02-04T12:43:36.838Z,77.92
2023-02-04T12:44:36.801Z,77.50
2023-02-04T12:45:36.766Z,77.19
2023-02-04T12:46:36.817Z,76.78
2023-02-04T12:47:36.684Z,75.74
2023-02-04T12:48:36.754Z,76.15
2023-02-04T12:49:36.623Z,75.74
2023-02-04T12:50:36.586Z,75.63
2023-02-04T12:51:36.534Z,76.84
2023-02-04T12:52:36.607Z,75.92
2023-02-04T12:53:36.468Z,75.71
2023-02-04T12:54:36.479Z,75.81
2023-02-04T12:55:36.400Z,75.88
2023-02-04T12:56:36.414Z,74.63
2023-02-04T12:57:36.316Z,73.74
2023-02-04T12:58:36.372Z,73.22
2023-02-04T12:59:36.235Z,71.98